Time;durP1;ratioP1;P1;durP2;ratioP2;P2;SDS_P1;SDS_P2;PMS_P1;PMS_P2;Temp;Humidity;BMP_temperature;BMP_pressure;BME280_temperature;BME280_humidity;BME280_pressure;Samples;Min_cycle;Max_cycle;Signal;HPM_P1;HPM_P2
2023/06/22 00:00:34;;;;;;;11.48;10.38;;;;;;;;;;5060054;28;20393;-54
2023/06/22 00:03:00;;;;;;;12.35;11.20;;;;;;;;;;5066151;28;20314;-55
2023/06/22 00:05:27;;;;;;;11.88;10.90;;;;;;;;;;5067016;28;20231;-54
2023/06/22 00:07:55;;;;;;;11.82;10.80;;;;;;;;;;5066174;28;20306;-54
2023/06/22 00:10:21;;;;;;;11.30;10.40;;;;;;;;;;5061709;28;20240;-54
2023/06/22 00:12:48;;;;;;;11.95;10.80;;;;;;;;;;5063706;28;20235;-54
2023/06/22 00:15:14;;;;;;;11.05;10.05;;;;;;;;;;5065398;28;20223;-53
2023/06/22 00:17:40;;;;;;;10.50;9.63;;;;;;;;;;5066287;28;20231;-54
2023/06/22 00:20:10;;;;;;;10.32;9.38;;;;;;;;;;5069204;28;20322;-54
2023/06/22 00:22:38;;;;;;;9.77;8.98;;;;;;;;;;5069344;28;20239;-55
2023/06/22 00:25:07;;;;;;;11.43;10.32;;;;;;;;;;5075357;28;20231;-54
2023/06/22 00:27:33;;;;;;;10.20;9.20;;;;;;;;;;5064773;28;20310;-55
2023/06/22 00:30:00;;;;;;;9.02;8.15;;;;;;;;;;5064989;28;20234;-55
2023/06/22 00:32:26;;;;;;;8.82;8.02;;;;;;;;;;5062688;28;20235;-54
2023/06/22 00:34:53;;;;;;;9.48;8.27;;;;;;;;;;5063453;28;20238;-55
2023/06/22 00:37:19;;;;;;;8.48;7.68;;;;;;;;;;5065647;28;20266;-54
2023/06/22 00:39:46;;;;;;;9.00;8.20;;;;;;;;;;5061250;28;20296;-55
2023/06/22 00:42:13;;;;;;;9.77;8.88;;;;;;;;;;5063680;28;21154;-56
2023/06/22 00:44:40;;;;;;;9.90;8.88;;;;;;;;;;5056857;28;20242;-54
2023/06/22 00:47:07;;;;;;;8.48;7.72;;;;;;;;;;5065407;28;20239;-55
2023/06/22 00:49:33;;;;;;;8.85;8.15;;;;;;;;;;5067973;28;20230;-55
2023/06/22 00:52:00;;;;;;;8.15;7.55;;;;;;;;;;5063748;28;20243;-54
2023/06/22 00:54:26;;;;;;;8.18;7.47;;;;;;;;;;5067333;28;20235;-54
2023/06/22 00:56:54;;;;;;;8.23;7.53;;;;;;;;;;5061751;28;20235;-54
2023/06/22 00:59:22;;;;;;;8.70;7.88;;;;;;;;;;5064651;28;20234;-54
2023/06/22 01:01:49;;;;;;;8.82;8.13;;;;;;;;;;5061886;28;20391;-54
2023/06/22 01:04:15;;;;;;;9.50;8.52;;;;;;;;;;5065989;28;20238;-55
2023/06/22 01:06:46;;;;;;;8.55;7.85;;;;;;;;;;5062718;28;20801;-55
2023/06/22 01:09:16;;;;;;;8.40;7.68;;;;;;;;;;5062579;28;20231;-54
2023/06/22 01:11:45;;;;;;;8.35;7.65;;;;;;;;;;5061538;28;20235;-54
2023/06/22 01:14:13;;;;;;;8.30;7.57;;;;;;;;;;5061579;28;20310;-55
2023/06/22 01:16:42;;;;;;;8.93;8.18;;;;;;;;;;5069896;28;20231;-54
2023/06/22 01:19:14;;;;;;;9.88;8.98;;;;;;;;;;5069672;28;20239;-55
2023/06/22 01:21:41;;;;;;;8.82;8.02;;;;;;;;;;5065261;28;20243;-55
2023/06/22 01:24:15;;;;;;;9.40;8.57;;;;;;;;;;5065072;28;20242;-55
2023/06/22 01:26:43;;;;;;;10.05;9.10;;;;;;;;;;5063590;28;20288;-54
2023/06/22 01:29:13;;;;;;;10.35;9.35;;;;;;;;;;5056864;28;20227;-54
2023/06/22 01:31:40;;;;;;;9.30;8.50;;;;;;;;;;5062922;28;20780;-54
2023/06/22 01:34:07;;;;;;;9.70;8.85;;;;;;;;;;5064676;28;20724;-54
2023/06/22 01:36:34;;;;;;;9.88;9.07;;;;;;;;;;5061142;28;20283;-54
2023/06/22 01:39:01;;;;;;;9.85;8.95;;;;;;;;;;5059136;28;20239;-55
2023/06/22 01:41:29;;;;;;;9.63;7.90;;;;;;;;;;5060519;28;20313;-55
2023/06/22 01:43:56;;;;;;;8.85;8.00;;;;;;;;;;5062789;28;20231;-55
2023/06/22 01:46:25;;;;;;;9.35;8.48;;;;;;;;;;5060722;28;20233;-55
2023/06/22 01:48:51;;;;;;;9.35;8.55;;;;;;;;;;5064725;28;20230;-54
2023/06/22 01:51:18;;;;;;;9.45;8.65;;;;;;;;;;5065056;28;20231;-55
2023/06/22 01:53:44;;;;;;;10.35;9.43;;;;;;;;;;5064538;28;20245;-56
2023/06/22 01:56:11;;;;;;;10.68;9.68;;;;;;;;;;5062809;28;20227;-54
2023/06/22 01:58:45;;;;;;;12.13;11.02;;;;;;;;;;5061547;28;20239;-54
2023/06/22 02:01:12;;;;;;;12.63;11.32;;;;;;;;;;5064896;28;20716;-55
2023/06/22 02:03:42;;;;;;;12.07;10.98;;;;;;;;;;5068492;28;20239;-55
2023/06/22 02:06:11;;;;;;;11.60;10.60;;;;;;;;;;5063690;28;20306;-54
2023/06/22 02:08:38;;;;;;;10.63;9.57;;;;;;;;;;5062150;28;20317;-54
2023/06/22 02:11:07;;;;;;;11.38;10.30;;;;;;;;;;5060190;28;20760;-54
2023/06/22 02:13:33;;;;;;;11.48;10.48;;;;;;;;;;5062515;28;20234;-54
2023/06/22 02:16:01;;;;;;;11.40;10.35;;;;;;;;;;5068057;28;20231;-56
2023/06/22 02:18:28;;;;;;;12.20;11.10;;;;;;;;;;5070293;28;20720;-54
2023/06/22 02:20:55;;;;;;;12.07;10.18;;;;;;;;;;5069023;28;20280;-54
2023/06/22 02:23:22;;;;;;;11.20;10.25;;;;;;;;;;5068398;28;20235;-54
2023/06/22 02:25:48;;;;;;;10.38;9.43;;;;;;;;;;5062343;28;20593;-55
2023/06/22 02:28:15;;;;;;;10.00;9.00;;;;;;;;;;5060968;28;20223;-53
2023/06/22 02:30:41;;;;;;;9.80;9.00;;;;;;;;;;5064291;28;20292;-55
2023/06/22 02:33:07;;;;;;;10.13;9.27;;;;;;;;;;5069975;28;20235;-55
2023/06/22 02:35:35;;;;;;;10.40;9.40;;;;;;;;;;5065404;28;20234;-55
2023/06/22 02:38:03;;;;;;;10.55;9.65;;;;;;;;;;5065441;28;20329;-56
2023/06/22 02:40:30;;;;;;;12.15;11.05;;;;;;;;;;5065805;28;20253;-55
2023/06/22 02:42:57;;;;;;;11.18;10.18;;;;;;;;;;5062737;28;20319;-54
2023/06/22 02:45:24;;;;;;;15.70;14.20;;;;;;;;;;5066274;28;20231;-54
2023/06/22 02:47:50;;;;;;;10.68;9.77;;;;;;;;;;5072618;28;20234;-58
2023/06/22 02:50:17;;;;;;;11.45;10.55;;;;;;;;;;5067154;28;20239;-54
2023/06/22 02:52:43;;;;;;;12.30;11.10;;;;;;;;;;5069127;28;20234;-55
2023/06/22 02:55:12;;;;;;;12.15;11.00;;;;;;;;;;5068526;28;20235;-55
2023/06/22 02:57:45;;;;;;;15.30;13.82;;;;;;;;;;5064629;28;20322;-53
2023/06/22 03:00:17;;;;;;;13.15;11.95;;;;;;;;;;5064733;28;20291;-55
2023/06/22 03:02:44;;;;;;;14.13;12.73;;;;;;;;;;5071056;28;20238;-54
2023/06/22 03:05:13;;;;;;;14.15;12.85;;;;;;;;;;5062523;28;20666;-55
2023/06/22 03:07:40;;;;;;;14.20;12.80;;;;;;;;;;5066730;28;20235;-54
2023/06/22 03:10:07;;;;;;;15.88;14.38;;;;;;;;;;5066687;28;20688;-55
2023/06/22 03:12:35;;;;;;;15.25;13.85;;;;;;;;;;5064185;28;20239;-53
2023/06/22 03:15:01;;;;;;;14.25;12.75;;;;;;;;;;5067810;28;20729;-55
2023/06/22 03:17:27;;;;;;;12.65;11.38;;;;;;;;;;5066982;28;20231;-54
2023/06/22 03:19:54;;;;;;;15.57;11.32;;;;;;;;;;5067627;28;20239;-61
2023/06/22 03:22:20;;;;;;;12.05;10.95;;;;;;;;;;5070649;28;20262;-55
2023/06/22 03:24:46;;;;;;;12.63;11.50;;;;;;;;;;5076882;28;20231;-54
2023/06/22 03:27:13;;;;;;;14.20;12.88;;;;;;;;;;5079459;28;20307;-55
2023/06/22 03:29:41;;;;;;;12.52;11.48;;;;;;;;;;5079189;28;20378;-56
2023/06/22 03:32:07;;;;;;;14.45;13.05;;;;;;;;;;5081319;28;20250;-55
2023/06/22 03:34:34;;;;;;;13.18;11.85;;;;;;;;;;5071128;28;20231;-55
2023/06/22 03:37:00;;;;;;;13.40;12.13;;;;;;;;;;5067341;28;20235;-55
2023/06/22 03:39:27;;;;;;;11.95;10.85;;;;;;;;;;5061929;28;20247;-56
2023/06/22 03:41:53;;;;;;;11.57;10.48;;;;;;;;;;5069334;28;20720;-54
2023/06/22 03:44:19;;;;;;;10.75;9.75;;;;;;;;;;5076236;28;20423;-54
2023/06/22 03:46:47;;;;;;;9.80;8.90;;;;;;;;;;5077407;28;20751;-55
2023/06/22 03:49:14;;;;;;;10.65;9.73;;;;;;;;;;5075668;28;20215;-55
2023/06/22 03:51:42;;;;;;;9.77;8.98;;;;;;;;;;5065043;28;20235;-55
2023/06/22 03:54:09;;;;;;;11.20;10.20;;;;;;;;;;5066992;28;20235;-55
2023/06/22 03:56:35;;;;;;;10.02;9.18;;;;;;;;;;5063633;28;20255;-55
2023/06/22 03:59:02;;;;;;;10.32;9.35;;;;;;;;;;5069503;28;20260;-55
2023/06/22 04:01:28;;;;;;;10.65;8.60;;;;;;;;;;5065517;28;20231;-54
2023/06/22 04:03:56;;;;;;;9.20;8.30;;;;;;;;;;5069023;28;20239;-55
2023/06/22 04:06:23;;;;;;;9.15;8.27;;;;;;;;;;5062569;28;20709;-59
2023/06/22 04:08:50;;;;;;;11.07;10.02;;;;;;;;;;5064090;28;20234;-55
2023/06/22 04:11:17;;;;;;;11.43;8.63;;;;;;;;;;5064264;28;20231;-54
2023/06/22 04:13:44;;;;;;;8.70;7.85;;;;;;;;;;5067044;28;20322;-56
2023/06/22 04:16:12;;;;;;;9.57;8.57;;;;;;;;;;5079257;28;20759;-56
2023/06/22 04:18:39;;;;;;;10.63;9.70;;;;;;;;;;5072075;28;20330;-54
2023/06/22 04:21:07;;;;;;;11.60;8.43;;;;;;;;;;5066312;28;20254;-56
2023/06/22 04:23:35;;;;;;;8.80;8.00;;;;;;;;;;5067142;28;20239;-59
2023/06/22 04:26:01;;;;;;;10.68;9.57;;;;;;;;;;5081653;28;20226;-55
2023/06/22 04:28:28;;;;;;;10.05;8.70;;;;;;;;;;5079521;28;20233;-54
2023/06/22 04:31:02;;;;;;;10.05;8.65;;;;;;;;;;5077010;28;20321;-55
2023/06/22 04:33:29;;;;;;;12.70;9.35;;;;;;;;;;5064130;28;20230;-55
2023/06/22 04:35:56;;;;;;;8.52;7.65;;;;;;;;;;5042219;28;20263;-54
2023/06/22 04:38:25;;;;;;;7.03;6.43;;;;;;;;;;5041646;28;20339;-54
2023/06/22 04:40:53;;;;;;;9.18;7.28;;;;;;;;;;5043458;28;20235;-55
2023/06/22 04:43:19;;;;;;;8.43;7.68;;;;;;;;;;5049165;28;20244;-55
2023/06/22 04:45:52;;;;;;;7.45;6.47;;;;;;;;;;5050955;28;20667;-55
2023/06/22 04:48:18;;;;;;;9.00;7.43;;;;;;;;;;5048307;28;20232;-54
2023/06/22 04:50:48;;;;;;;8.63;7.72;;;;;;;;;;5050864;28;20228;-59
2023/06/22 04:53:15;;;;;;;7.65;7.05;;;;;;;;;;5054441;28;20326;-55
2023/06/22 04:55:45;;;;;;;7.88;7.07;;;;;;;;;;5057154;28;20255;-55
2023/06/22 04:58:12;;;;;;;7.40;6.78;;;;;;;;;;5048856;28;20231;-54
2023/06/22 05:00:39;;;;;;;6.93;6.25;;;;;;;;;;5040681;28;20244;-54
2023/06/22 05:03:06;;;;;;;6.85;6.15;;;;;;;;;;5042280;28;20254;-54
2023/06/22 05:05:32;;;;;;;8.38;6.15;;;;;;;;;;5041337;28;20288;-54
2023/06/22 05:08:02;;;;;;;7.10;5.60;;;;;;;;;;5040560;28;20278;-54
2023/06/22 05:10:28;;;;;;;5.82;5.32;;;;;;;;;;5058275;28;20235;-56
2023/06/22 05:12:56;;;;;;;4.93;4.50;;;;;;;;;;5039793;28;20954;-55
2023/06/22 05:15:26;;;;;;;4.88;4.35;;;;;;;;;;5044169;28;20310;-54
2023/06/22 05:17:53;;;;;;;5.03;4.25;;;;;;;;;;5041443;28;20232;-55
2023/06/22 05:20:19;;;;;;;7.32;4.38;;;;;;;;;;5036507;28;20319;-55
2023/06/22 05:22:45;;;;;;;5.95;5.00;;;;;;;;;;5042419;28;20257;-55
2023/06/22 05:25:12;;;;;;;5.78;4.32;;;;;;;;;;5039502;28;20315;-55
2023/06/22 05:27:40;;;;;;;4.57;4.18;;;;;;;;;;5041584;28;20244;-55
2023/06/22 05:30:09;;;;;;;5.05;3.88;;;;;;;;;;5039476;28;20344;-56
2023/06/22 05:32:35;;;;;;;3.70;3.40;;;;;;;;;;5042404;28;20373;-57
2023/06/22 05:35:02;;;;;;;4.72;3.97;;;;;;;;;;5056603;28;20238;-56
2023/06/22 05:37:29;;;;;;;5.43;4.93;;;;;;;;;;5056917;28;20231;-55
2023/06/22 05:39:57;;;;;;;5.20;4.78;;;;;;;;;;5075794;28;20696;-55
2023/06/22 05:42:25;;;;;;;4.50;3.78;;;;;;;;;;5075990;28;20235;-56
2023/06/22 05:44:51;;;;;;;5.95;3.92;;;;;;;;;;5079709;28;20287;-61
2023/06/22 05:47:19;;;;;;;5.45;3.85;;;;;;;;;;5065886;28;20224;-54
2023/06/22 05:49:45;;;;;;;4.43;4.03;;;;;;;;;;5066491;28;20231;-55
2023/06/22 05:52:12;;;;;;;4.85;4.35;;;;;;;;;;5067972;28;20239;-55
2023/06/22 05:54:46;;;;;;;4.20;3.80;;;;;;;;;;5070475;28;20266;-55
2023/06/22 05:57:13;;;;;;;5.00;4.45;;;;;;;;;;5062952;28;20260;-55
2023/06/22 05:59:40;;;;;;;7.80;4.03;;;;;;;;;;5069579;28;20230;-55
2023/06/22 06:02:06;;;;;;;4.78;4.18;;;;;;;;;;5076960;28;20660;-56
2023/06/22 06:04:35;;;;;;;5.80;4.07;;;;;;;;;;5073766;28;20231;-56
2023/06/22 06:07:02;;;;;;;6.22;4.28;;;;;;;;;;5067717;28;20231;-55
2023/06/22 06:09:30;;;;;;;7.93;4.85;;;;;;;;;;5066253;28;20230;-54
2023/06/22 06:12:04;;;;;;;6.43;4.50;;;;;;;;;;5065460;28;20266;-56
2023/06/22 06:14:32;;;;;;;4.30;3.90;;;;;;;;;;5067749;28;20673;-54
2023/06/22 06:16:59;;;;;;;6.47;4.65;;;;;;;;;;5066252;28;20893;-54
2023/06/22 06:19:25;;;;;;;4.82;3.88;;;;;;;;;;5069549;28;20235;-55
2023/06/22 06:21:53;;;;;;;6.82;4.45;;;;;;;;;;5064248;28;20329;-56
2023/06/22 06:24:19;;;;;;;4.68;4.28;;;;;;;;;;5065574;28;20395;-55
2023/06/22 06:26:46;;;;;;;5.35;4.60;;;;;;;;;;5065670;28;20228;-55
2023/06/22 06:29:16;;;;;;;4.68;4.20;;;;;;;;;;5067101;28;20773;-56
2023/06/22 06:31:42;;;;;;;5.30;4.80;;;;;;;;;;5064278;28;20296;-55
2023/06/22 06:34:09;;;;;;;5.72;4.70;;;;;;;;;;5066843;28;20696;-55
2023/06/22 06:36:35;;;;;;;5.57;4.95;;;;;;;;;;5065646;28;20326;-54
2023/06/22 06:39:04;;;;;;;4.85;4.25;;;;;;;;;;5065460;28;20341;-55
2023/06/22 06:41:30;;;;;;;4.97;4.25;;;;;;;;;;5053543;28;20761;-56
2023/06/22 06:43:57;;;;;;;7.22;4.85;;;;;;;;;;5065692;28;20289;-55
2023/06/22 06:46:23;;;;;;;5.60;4.15;;;;;;;;;;5062063;28;20234;-55
2023/06/22 06:48:49;;;;;;;6.57;3.25;;;;;;;;;;5067798;28;20236;-55
2023/06/22 06:51:16;;;;;;;3.92;3.47;;;;;;;;;;5068672;28;20231;-54
2023/06/22 06:53:44;;;;;;;4.53;3.60;;;;;;;;;;5070238;28;20239;-56
2023/06/22 06:56:12;;;;;;;4.40;3.53;;;;;;;;;;5069574;28;20258;-55
2023/06/22 06:58:39;;;;;;;6.10;4.22;;;;;;;;;;5068196;28;20269;-55
2023/06/22 07:01:06;;;;;;;6.18;3.60;;;;;;;;;;5063468;28;20657;-55
2023/06/22 07:03:33;;;;;;;6.38;4.35;;;;;;;;;;5059591;28;20250;-55
2023/06/22 07:05:59;;;;;;;4.80;3.42;;;;;;;;;;5065692;28;20269;-55
2023/06/22 07:08:25;;;;;;;4.35;3.92;;;;;;;;;;5063644;28;20309;-56
2023/06/22 07:10:52;;;;;;;3.63;3.15;;;;;;;;;;5063170;28;20245;-56
2023/06/22 07:13:20;;;;;;;7.10;3.83;;;;;;;;;;5059108;28;20232;-55
2023/06/22 07:15:46;;;;;;;3.70;3.40;;;;;;;;;;5071134;28;20326;-55
2023/06/22 07:18:13;;;;;;;6.32;4.40;;;;;;;;;;5060360;28;20305;-55
2023/06/22 07:20:41;;;;;;;4.20;3.80;;;;;;;;;;5065316;28;20742;-56
2023/06/22 07:23:07;;;;;;;3.95;3.53;;;;;;;;;;5068180;28;20652;-56
2023/06/22 07:25:34;;;;;;;4.43;3.30;;;;;;;;;;5059413;28;20223;-56
2023/06/22 07:28:01;;;;;;;5.05;4.10;;;;;;;;;;5072368;28;20604;-55
2023/06/22 07:30:29;;;;;;;3.85;3.47;;;;;;;;;;5067027;28;20234;-54
2023/06/22 07:32:56;;;;;;;5.38;3.50;;;;;;;;;;5071189;28;20238;-55
2023/06/22 07:35:22;;;;;;;3.72;3.35;;;;;;;;;;5068143;28;20308;-55
2023/06/22 07:37:49;;;;;;;4.25;3.53;;;;;;;;;;5073321;28;20292;-55
2023/06/22 07:40:15;;;;;;;3.22;2.60;;;;;;;;;;5064346;28;20237;-55
2023/06/22 07:42:42;;;;;;;4.13;3.35;;;;;;;;;;5067864;28;20239;-59
2023/06/22 07:45:09;;;;;;;3.53;2.92;;;;;;;;;;5056874;28;20232;-55
2023/06/22 07:47:37;;;;;;;3.08;2.50;;;;;;;;;;5071041;27;20584;-54
2023/06/22 07:50:04;;;;;;;3.03;2.72;;;;;;;;;;5065860;28;20242;-55
2023/06/22 07:52:30;;;;;;;4.43;2.90;;;;;;;;;;5064909;28;20288;-55
2023/06/22 07:54:57;;;;;;;4.60;3.60;;;;;;;;;;5068049;28;20680;-56
2023/06/22 07:57:31;;;;;;;5.90;2.95;;;;;;;;;;5055690;28;20235;-56
2023/06/22 07:59:58;;;;;;;4.63;3.30;;;;;;;;;;5043237;28;20230;-55
2023/06/22 08:02:24;;;;;;;4.97;2.58;;;;;;;;;;5054968;28;20259;-54
2023/06/22 08:04:52;;;;;;;6.82;2.75;;;;;;;;;;5059537;28;20223;-54
2023/06/22 08:07:19;;;;;;;3.42;3.13;;;;;;;;;;5060743;28;20229;-55
2023/06/22 08:09:47;;;;;;;2.35;2.15;;;;;;;;;;5056758;28;20711;-55
2023/06/22 08:12:13;;;;;;;3.42;3.13;;;;;;;;;;5062561;28;20235;-55
2023/06/22 08:14:40;;;;;;;3.75;2.83;;;;;;;;;;5067402;28;20245;-55
2023/06/22 08:17:06;;;;;;;2.65;2.45;;;;;;;;;;5063922;28;20262;-55
2023/06/22 08:19:33;;;;;;;3.50;2.97;;;;;;;;;;5059144;28;20650;-57
2023/06/22 08:22:00;;;;;;;3.78;2.88;;;;;;;;;;5068682;28;20317;-56
2023/06/22 08:24:30;;;;;;;2.70;2.50;;;;;;;;;;5069552;28;20790;-55
2023/06/22 08:26:56;;;;;;;4.30;2.67;;;;;;;;;;5069999;28;20234;-54
2023/06/22 08:29:23;;;;;;;3.95;2.88;;;;;;;;;;5073795;28;20227;-56
2023/06/22 08:31:49;;;;;;;5.40;2.85;;;;;;;;;;5072310;28;20248;-55
2023/06/22 08:34:16;;;;;;;3.42;2.72;;;;;;;;;;5067973;28;20382;-55
2023/06/22 08:36:43;;;;;;;3.05;2.85;;;;;;;;;;5063192;28;21370;-56
2023/06/22 08:39:10;;;;;;;2.90;2.35;;;;;;;;;;5068187;28;20239;-55
2023/06/22 08:41:37;;;;;;;3.22;2.83;;;;;;;;;;5064729;28;20326;-55
2023/06/22 08:44:03;;;;;;;2.17;1.98;;;;;;;;;;5063904;28;20647;-57
2023/06/22 08:46:33;;;;;;;4.28;2.88;;;;;;;;;;5063628;28;20319;-55
2023/06/22 08:49:00;;;;;;;2.58;2.38;;;;;;;;;;5061618;28;20227;-55
2023/06/22 08:51:28;;;;;;;3.75;2.67;;;;;;;;;;5055147;28;20300;-55
2023/06/22 08:53:54;;;;;;;3.67;2.78;;;;;;;;;;5071965;28;20231;-54
2023/06/22 08:56:22;;;;;;;3.33;2.30;;;;;;;;;;5069896;28;20331;-55
2023/06/22 08:58:48;;;;;;;3.10;2.45;;;;;;;;;;5060631;28;20836;-55
2023/06/22 09:01:15;;;;;;;3.50;2.95;;;;;;;;;;5075087;28;20331;-55
2023/06/22 09:03:42;;;;;;;2.88;2.53;;;;;;;;;;5063586;28;20604;-56
2023/06/22 09:06:10;;;;;;;3.85;3.45;;;;;;;;;;5055846;28;20642;-53
2023/06/22 09:08:36;;;;;;;5.65;3.20;;;;;;;;;;5062126;28;20231;-56
2023/06/22 09:11:02;;;;;;;4.25;3.28;;;;;;;;;;5064490;28;20357;-55
2023/06/22 09:13:31;;;;;;;4.20;3.10;;;;;;;;;;5061893;28;20232;-55
2023/06/22 09:15:58;;;;;;;3.80;3.05;;;;;;;;;;5059203;28;20253;-54
2023/06/22 09:18:24;;;;;;;3.05;2.85;;;;;;;;;;5065802;28;20738;-55
2023/06/22 09:20:51;;;;;;;3.13;2.83;;;;;;;;;;5073104;28;20227;-56
2023/06/22 09:23:17;;;;;;;3.08;2.88;;;;;;;;;;5069835;28;20238;-56
2023/06/22 09:25:44;;;;;;;4.78;4.30;;;;;;;;;;5081260;28;20257;-56
2023/06/22 09:28:10;;;;;;;3.55;3.13;;;;;;;;;;5066114;28;20281;-56
2023/06/22 09:30:38;;;;;;;7.25;3.40;;;;;;;;;;5072629;28;20584;-54
2023/06/22 09:33:04;;;;;;;3.33;3.03;;;;;;;;;;5077862;28;20603;-56
2023/06/22 09:35:30;;;;;;;3.42;3.13;;;;;;;;;;5064298;28;20304;-55
2023/06/22 09:37:57;;;;;;;3.42;3.13;;;;;;;;;;5048197;28;20910;-53
2023/06/22 09:40:23;;;;;;;3.90;3.50;;;;;;;;;;5049257;28;20237;-54
2023/06/22 09:42:50;;;;;;;3.75;3.45;;;;;;;;;;5047666;28;20975;-55
2023/06/22 09:45:16;;;;;;;6.50;3.58;;;;;;;;;;5046183;28;20314;-56
2023/06/22 09:47:44;;;;;;;3.47;2.90;;;;;;;;;;5043111;28;20285;-56
2023/06/22 09:50:11;;;;;;;3.58;3.08;;;;;;;;;;5045810;28;20859;-56
2023/06/22 09:52:37;;;;;;;4.75;3.67;;;;;;;;;;5059634;28;20811;-54
2023/06/22 09:55:04;;;;;;;8.48;4.38;;;;;;;;;;5053506;28;20227;-57
2023/06/22 09:57:31;;;;;;;3.38;3.08;;;;;;;;;;5039729;28;20310;-56
2023/06/22 09:59:57;;;;;;;2.97;2.67;;;;;;;;;;5043307;28;20251;-55
2023/06/22 10:02:24;;;;;;;3.30;3.10;;;;;;;;;;5034787;28;20240;-56
2023/06/22 10:04:52;;;;;;;3.33;3.13;;;;;;;;;;5041929;28;20227;-56
2023/06/22 10:07:18;;;;;;;3.30;2.90;;;;;;;;;;5037454;28;20340;-56
2023/06/22 10:09:47;;;;;;;5.63;3.13;;;;;;;;;;5034033;28;20246;-55
2023/06/22 10:12:14;;;;;;;3.70;3.40;;;;;;;;;;5038702;28;20236;-57
2023/06/22 10:14:40;;;;;;;4.93;3.85;;;;;;;;;;5044043;28;20297;-55
2023/06/22 10:17:07;;;;;;;3.22;3.03;;;;;;;;;;5038936;28;20634;-55
2023/06/22 10:19:33;;;;;;;3.80;3.50;;;;;;;;;;5041683;28;20240;-55
2023/06/22 10:22:01;;;;;;;3.53;3.22;;;;;;;;;;5056121;28;20243;-56
2023/06/22 10:24:28;;;;;;;3.45;3.15;;;;;;;;;;5068906;28;20786;-56
2023/06/22 10:26:54;;;;;;;4.10;3.80;;;;;;;;;;5067881;28;20782;-56
2023/06/22 10:29:21;;;;;;;7.57;3.70;;;;;;;;;;5073107;28;20226;-55
2023/06/22 10:31:47;;;;;;;4.25;3.95;;;;;;;;;;5067413;28;20317;-56
2023/06/22 10:34:14;;;;;;;4.20;3.80;;;;;;;;;;5064939;28;20235;-55
2023/06/22 10:36:40;;;;;;;3.95;3.60;;;;;;;;;;5063612;28;20231;-57
2023/06/22 10:39:08;;;;;;;3.42;3.15;;;;;;;;;;5064219;28;20254;-57
2023/06/22 10:41:34;;;;;;;7.20;4.35;;;;;;;;;;5060376;28;20242;-55
2023/06/22 10:44:02;;;;;;;4.22;3.85;;;;;;;;;;5073001;28;20231;-57
2023/06/22 10:46:28;;;;;;;7.55;4.00;;;;;;;;;;5059763;28;20265;-57
2023/06/22 10:48:56;;;;;;;3.78;3.47;;;;;;;;;;5064071;28;20235;-56
2023/06/22 10:51:23;;;;;;;3.72;3.42;;;;;;;;;;5068086;28;20239;-59
2023/06/22 10:53:50;;;;;;;4.60;4.10;;;;;;;;;;5068634;28;20234;-56
2023/06/22 10:56:19;;;;;;;5.05;3.92;;;;;;;;;;5068076;28;20262;-57
2023/06/22 10:58:45;;;;;;;6.10;4.03;;;;;;;;;;5057810;28;20243;-56
2023/06/22 11:01:12;;;;;;;3.97;3.65;;;;;;;;;;5067546;28;20547;-56
2023/06/22 11:03:38;;;;;;;4.80;3.65;;;;;;;;;;5066993;28;20284;-56
2023/06/22 11:06:04;;;;;;;4.97;3.70;;;;;;;;;;5064993;28;20263;-55
2023/06/22 11:08:31;;;;;;;5.72;4.07;;;;;;;;;;5059217;28;20382;-56
2023/06/22 11:10:57;;;;;;;3.22;3.03;;;;;;;;;;5065624;28;20227;-55
2023/06/22 11:13:25;;;;;;;4.13;3.83;;;;;;;;;;5064402;28;20735;-56
2023/06/22 11:15:51;;;;;;;5.55;4.28;;;;;;;;;;5066005;28;20259;-56
2023/06/22 11:18:17;;;;;;;3.85;3.55;;;;;;;;;;5066152;28;20678;-56
2023/06/22 11:20:44;;;;;;;4.40;4.00;;;;;;;;;;5070717;28;20251;-56
2023/06/22 11:23:11;;;;;;;5.65;4.13;;;;;;;;;;5065688;28;20301;-56
2023/06/22 11:25:38;;;;;;;4.90;4.50;;;;;;;;;;5068872;28;20229;-57
2023/06/22 11:28:04;;;;;;;4.35;3.50;;;;;;;;;;5064644;28;20230;-56
2023/06/22 11:30:33;;;;;;;5.30;4.10;;;;;;;;;;5064375;28;20255;-56
2023/06/22 11:32:59;;;;;;;5.22;3.42;;;;;;;;;;5065188;28;20314;-56
2023/06/22 11:35:26;;;;;;;4.22;3.90;;;;;;;;;;5066903;28;20334;-56
2023/06/22 11:37:52;;;;;;;3.90;3.47;;;;;;;;;;5067354;28;20238;-56
2023/06/22 11:40:19;;;;;;;4.20;3.58;;;;;;;;;;5068606;28;20318;-56
2023/06/22 11:42:45;;;;;;;4.13;3.72;;;;;;;;;;5062170;28;20314;-56
2023/06/22 11:45:12;;;;;;;4.20;3.67;;;;;;;;;;5063276;28;20236;-56
2023/06/22 11:47:40;;;;;;;6.13;4.35;;;;;;;;;;5064479;28;20236;-56
2023/06/22 11:50:07;;;;;;;4.07;3.78;;;;;;;;;;5065727;28;20265;-56
2023/06/22 11:52:35;;;;;;;4.28;3.97;;;;;;;;;;5061393;28;20239;-56
2023/06/22 11:55:03;;;;;;;4.30;3.45;;;;;;;;;;5065976;28;20293;-55
2023/06/22 11:57:29;;;;;;;6.63;3.83;;;;;;;;;;5062753;28;20231;-55
2023/06/22 11:59:56;;;;;;;5.75;5.28;;;;;;;;;;5071327;28;20314;-56
2023/06/22 12:02:22;;;;;;;4.65;4.15;;;;;;;;;;5065719;28;20326;-56
2023/06/22 12:04:52;;;;;;;3.92;3.63;;;;;;;;;;5070284;28;20651;-57
2023/06/22 12:07:18;;;;;;;4.03;3.63;;;;;;;;;;5063404;28;20235;-56
2023/06/22 12:09:45;;;;;;;5.03;3.58;;;;;;;;;;5062737;28;20604;-56
2023/06/22 12:12:11;;;;;;;5.68;4.15;;;;;;;;;;5068567;28;20265;-56
2023/06/22 12:14:38;;;;;;;4.55;4.07;;;;;;;;;;5066304;28;20231;-56
2023/06/22 12:17:05;;;;;;;4.75;4.28;;;;;;;;;;5068952;28;20281;-58
2023/06/22 12:19:31;;;;;;;4.50;3.92;;;;;;;;;;5063283;28;20223;-59
2023/06/22 12:21:59;;;;;;;4.05;3.75;;;;;;;;;;5071903;28;20239;-57
2023/06/22 12:24:25;;;;;;;4.45;4.05;;;;;;;;;;5065669;28;20322;-56
2023/06/22 12:26:52;;;;;;;5.45;3.40;;;;;;;;;;5068854;28;20828;-56
2023/06/22 12:29:18;;;;;;;4.13;3.83;;;;;;;;;;5055414;28;20257;-56
2023/06/22 12:31:44;;;;;;;6.07;4.00;;;;;;;;;;5064234;28;20844;-57
2023/06/22 12:34:11;;;;;;;6.75;3.78;;;;;;;;;;5066331;28;20260;-55
2023/06/22 12:36:37;;;;;;;4.03;3.63;;;;;;;;;;5062714;28;20283;-55
2023/06/22 12:39:05;;;;;;;4.28;3.88;;;;;;;;;;5057886;28;20304;-56
2023/06/22 12:41:32;;;;;;;4.30;4.00;;;;;;;;;;5065741;28;20226;-63
2023/06/22 12:43:59;;;;;;;4.10;3.80;;;;;;;;;;5065380;28;20238;-57
2023/06/22 12:46:26;;;;;;;3.33;3.13;;;;;;;;;;5066193;28;20231;-56
2023/06/22 12:48:52;;;;;;;4.47;4.07;;;;;;;;;;5066079;28;20235;-56
2023/06/22 12:51:21;;;;;;;4.13;3.42;;;;;;;;;;5072970;28;20326;-55
2023/06/22 12:53:48;;;;;;;4.03;3.72;;;;;;;;;;5071068;28;20255;-57
2023/06/22 12:56:15;;;;;;;4.28;3.97;;;;;;;;;;5076833;28;20318;-56
2023/06/22 12:58:42;;;;;;;4.15;3.75;;;;;;;;;;5069765;28;20287;-56
2023/06/22 13:01:08;;;;;;;6.47;4.38;;;;;;;;;;5074523;28;20258;-63
2023/06/22 13:03:35;;;;;;;4.20;3.90;;;;;;;;;;5054737;28;20235;-55
2023/06/22 13:06:02;;;;;;;4.70;4.30;;;;;;;;;;5061668;28;20653;-56
2023/06/22 13:08:28;;;;;;;10.23;4.63;;;;;;;;;;5041592;28;20696;-56
2023/06/22 13:10:56;;;;;;;4.22;3.92;;;;;;;;;;5039592;28;20307;-55
2023/06/22 13:13:25;;;;;;;4.38;4.00;;;;;;;;;;5037989;28;20286;-56
2023/06/22 13:15:52;;;;;;;4.68;3.80;;;;;;;;;;5039509;28;20259;-56
2023/06/22 13:18:19;;;;;;;4.38;4.03;;;;;;;;;;5044009;28;20274;-57
2023/06/22 13:20:46;;;;;;;3.67;3.38;;;;;;;;;;5043468;28;20232;-57
2023/06/22 13:23:12;;;;;;;4.85;4.15;;;;;;;;;;5039934;28;20237;-55
2023/06/22 13:25:40;;;;;;;7.47;4.00;;;;;;;;;;5044318;28;20238;-56
2023/06/22 13:28:06;;;;;;;5.97;4.68;;;;;;;;;;5036531;28;20319;-56
2023/06/22 13:30:34;;;;;;;4.30;4.00;;;;;;;;;;5048195;28;20238;-56
2023/06/22 13:33:00;;;;;;;4.88;4.30;;;;;;;;;;5040882;28;20243;-56
2023/06/22 13:35:27;;;;;;;4.20;3.80;;;;;;;;;;5040459;28;20715;-57
2023/06/22 13:37:53;;;;;;;4.88;4.47;;;;;;;;;;5038261;28;20325;-55
2023/06/22 13:40:20;;;;;;;4.72;4.32;;;;;;;;;;5042462;28;20314;-56
2023/06/22 13:42:46;;;;;;;4.88;4.53;;;;;;;;;;5048162;28;20288;-56
2023/06/22 13:45:12;;;;;;;4.70;4.40;;;;;;;;;;5047742;28;20661;-56
2023/06/22 13:47:40;;;;;;;5.95;4.75;;;;;;;;;;5052134;28;20255;-54
2023/06/22 13:50:07;;;;;;;5.40;4.40;;;;;;;;;;5035070;28;20262;-56
2023/06/22 13:52:33;;;;;;;6.30;4.45;;;;;;;;;;5043938;28;20244;-57
2023/06/22 13:55:00;;;;;;;4.55;4.15;;;;;;;;;;5037104;28;20234;-57
2023/06/22 13:57:26;;;;;;;4.82;4.43;;;;;;;;;;5047444;28;20773;-56
2023/06/22 13:59:53;;;;;;;5.68;4.05;;;;;;;;;;5051215;28;20306;-55
2023/06/22 14:02:19;;;;;;;5.05;4.22;;;;;;;;;;5039646;28;20606;-56
2023/06/22 14:04:47;;;;;;;4.32;4.03;;;;;;;;;;5039265;28;20228;-57
2023/06/22 14:07:14;;;;;;;6.65;4.55;;;;;;;;;;5039496;28;20242;-56
2023/06/22 14:09:40;;;;;;;4.70;4.32;;;;;;;;;;5044126;28;20235;-56
2023/06/22 14:12:07;;;;;;;6.35;4.93;;;;;;;;;;5052974;28;20346;-55
2023/06/22 14:14:34;;;;;;;5.18;4.13;;;;;;;;;;5044716;28;20239;-61
2023/06/22 14:17:01;;;;;;;4.13;3.45;;;;;;;;;;5040969;28;20257;-56
2023/06/22 14:19:27;;;;;;;4.10;3.80;;;;;;;;;;5043981;28;20232;-56
2023/06/22 14:21:56;;;;;;;4.75;4.35;;;;;;;;;;5047117;28;21085;-56
2023/06/22 14:24:23;;;;;;;4.63;4.30;;;;;;;;;;5046291;28;20243;-57
2023/06/22 14:26:50;;;;;;;5.22;4.80;;;;;;;;;;5049646;28;20783;-57
2023/06/22 14:29:16;;;;;;;8.32;5.28;;;;;;;;;;5046739;28;20615;-56
2023/06/22 14:31:45;;;;;;;4.80;4.38;;;;;;;;;;5061220;28;20251;-55
2023/06/22 14:34:12;;;;;;;5.03;4.60;;;;;;;;;;5041175;28;20224;-58
2023/06/22 14:36:38;;;;;;;5.82;5.30;;;;;;;;;;5048973;28;20239;-56